Time;durP1;ratioP1;P1;durP2;ratioP2;P2;SDS_P1;SDS_P2;PMS_P1;PMS_P2;Temp;Humidity;BMP_temperature;BMP_pressure;BME280_temperature;BME280_humidity;BME280_pressure;Samples;Min_cycle;Max_cycle;Signal;HPM_P1;HPM_P2
2022/01/25 00:10:40;;;;;;;12.98;6.70;;;2.20;99.90;;;2.36;90.01;102322.53;5014189;28;20218;-67
2022/01/25 00:24:16;;;;;;;11.75;6.80;;;2.20;99.90;;;2.31;89.63;102317.44;5015164;28;20214;-66
2022/01/25 00:24:33;;;;;;;11.05;7.25;;;2.10;99.90;;;2.27;89.43;102325.22;5000465;28;20202;-67
2022/01/25 00:32:16;;;;;;;10.23;6.63;;;2.00;99.90;;;2.15;90.21;102315.06;5014878;28;20226;-67
2022/01/25 00:34:44;;;;;;;11.88;6.60;;;2.00;99.90;;;2.16;90.26;102320.19;5013697;28;20273;-65
2022/01/25 00:37:12;;;;;;;9.95;6.40;;;2.00;99.90;;;2.15;90.60;102318.47;5014807;28;20206;-66
2022/01/25 00:39:40;;;;;;;12.38;7.90;;;2.00;99.90;;;2.21;90.23;102314.97;5013506;28;20744;-66
2022/01/25 00:42:08;;;;;;;13.90;7.50;;;2.10;99.90;;;2.15;90.36;102325.34;4997632;28;20333;-68
2022/01/25 00:44:38;;;;;;;14.13;7.47;;;2.00;99.90;;;2.14;90.13;102318.47;5013416;28;20596;-66
2022/01/25 00:47:07;;;;;;;12.95;7.05;;;2.00;99.90;;;2.22;89.98;102322.69;5013237;28;20205;-66
2022/01/25 00:49:39;;;;;;;14.35;8.85;;;2.10;99.90;;;2.18;89.33;102325.31;4996358;28;20207;-66
2022/01/25 00:54:58;;;;;;;13.07;8.32;;;2.10;99.90;;;2.16;90.11;102330.47;5003334;28;20222;-67
2022/01/25 00:57:26;;;;;;;13.75;9.05;;;2.00;99.90;;;2.06;89.71;102328.88;5013306;28;20290;-66
2022/01/25 00:59:52;;;;;;;15.25;9.02;;;2.00;99.90;;;2.13;90.27;102324.53;5013476;28;20206;-67
2022/01/25 01:02:19;;;;;;;16.33;9.00;;;2.00;99.90;;;2.12;90.23;102331.38;4997095;28;20227;-68
2022/01/25 01:04:50;;;;;;;12.52;6.95;;;2.00;99.90;;;2.11;90.10;102334.81;5013252;28;20226;-68
2022/01/25 01:07:17;;;;;;;18.88;10.18;;;2.00;99.90;;;2.05;89.82;102334.88;5012787;28;20206;-67
2022/01/25 01:09:46;;;;;;;13.82;8.80;;;2.00;99.90;;;2.12;89.68;102330.53;5012964;28;20290;-69
2022/01/25 01:12:31;;;;;;;13.27;8.65;;;2.00;99.90;;;2.00;89.94;102334.06;4995852;28;20313;-66
2022/01/25 01:15:16;;;;;;;12.05;7.88;;;1.90;99.90;;;1.94;90.81;102328.97;5030441;28;20209;-68
2022/01/25 01:31:50;;;;;;;12.48;7.80;;;1.90;99.90;;;1.89;90.11;102333.34;5034292;28;20296;-67
2022/01/25 01:39:59;;;;;;;12.65;8.80;;;1.90;99.90;;;1.88;90.88;102341.06;5027566;28;20226;-68
2022/01/25 01:47:44;;;;;;;11.48;6.32;;;1.80;99.90;;;1.92;90.67;102347.88;5012203;28;20203;-66
2022/01/25 01:50:15;;;;;;;15.73;7.95;;;1.80;99.90;;;1.95;90.44;102342.72;4997085;28;20202;-66
2022/01/25 01:52:42;;;;;;;12.90;7.55;;;1.90;99.90;;;1.90;90.56;102341.88;5007948;28;20206;-68
2022/01/25 01:55:09;;;;;;;14.70;7.03;;;1.80;99.90;;;1.87;90.50;102347.06;5030150;28;20205;-68
2022/01/25 01:57:36;;;;;;;13.65;7.13;;;1.80;99.90;;;1.83;90.39;102337.69;5025223;28;20202;-67
2022/01/25 02:00:05;;;;;;;15.15;7.18;;;1.70;99.90;;;1.83;90.30;102340.25;5022804;28;20663;-69
2022/01/25 02:02:33;;;;;;;9.02;5.57;;;1.70;99.90;;;1.83;91.03;102335.94;5029725;28;20678;-65
2022/01/25 02:05:00;;;;;;;10.43;6.35;;;1.70;99.90;;;1.82;90.44;102330.81;5014592;28;20225;-66
2022/01/25 02:07:27;;;;;;;12.00;6.18;;;1.70;99.90;;;1.85;90.37;102335.94;5018409;28;20198;-65
2022/01/25 02:09:54;;;;;;;7.35;5.40;;;1.80;99.90;;;1.83;90.79;102327.38;5011798;28;20199;-66
2022/01/25 02:12:21;;;;;;;10.60;7.05;;;1.70;99.90;;;1.82;90.93;102331.69;5013897;28;20225;-67
2022/01/25 02:14:48;;;;;;;10.90;6.47;;;1.70;99.90;;;1.85;90.87;102325.66;5021436;28;20285;-68
2022/01/25 02:17:55;;;;;;;10.32;6.22;;;1.70;99.90;;;1.84;90.39;102331.66;5015450;28;20670;-64
2022/01/25 02:23:22;;;;;;;3.67;3.33;;;1.70;99.90;;;1.85;89.84;102315.34;5034020;28;20596;-66
2022/01/25 02:25:56;;;;;;;8.38;5.03;;;1.70;99.90;;;1.85;89.80;102311.06;5030188;28;20232;-67
2022/01/25 02:28:30;;;;;;;8.65;4.78;;;1.70;99.90;;;1.83;90.08;102309.38;5018613;28;20211;-66
2022/01/25 02:30:58;;;;;;;4.53;3.67;;;1.70;99.90;;;1.78;90.21;102305.97;5010964;28;20328;-67
2022/01/25 02:33:26;;;;;;;4.93;4.05;;;1.70;99.90;;;1.76;90.27;102302.56;5010527;28;20195;-66
2022/01/25 02:35:55;;;;;;;5.63;3.75;;;1.70;99.90;;;1.72;90.68;102303.47;5010315;28;20297;-67
2022/01/25 02:38:29;;;;;;;15.93;4.15;;;1.70;99.90;;;1.70;90.52;102297.47;4994431;28;20210;-68
2022/01/25 02:40:57;;;;;;;5.30;3.22;;;1.60;99.90;;;1.73;90.41;102303.44;5028010;28;20230;-67
2022/01/25 02:43:26;;;;;;;5.20;4.35;;;1.70;99.90;;;1.74;90.41;102304.31;5001225;28;20594;-67
2022/01/25 02:49:04;;;;;;;9.00;5.45;;;1.60;99.90;;;1.59;90.91;102295.00;5029720;28;20258;-70
2022/01/25 02:51:37;;;;;;;4.85;3.50;;;1.60;99.90;;;1.63;90.72;102303.53;5047752;28;20598;-66
2022/01/25 02:54:07;;;;;;;7.65;4.05;;;1.50;99.90;;;1.61;90.81;102300.13;5031819;28;20202;-65
2022/01/25 02:56:40;;;;;;;7.63;3.90;;;1.60;99.90;;;1.57;90.55;102299.31;5029976;28;20598;-66
2022/01/25 02:59:07;;;;;;;7.63;3.60;;;1.50;99.90;;;1.52;90.76;102301.91;5011378;28;20294;-68
2022/01/25 03:01:36;;;;;;;6.05;3.20;;;1.40;99.90;;;1.46;91.32;102301.13;5010906;28;20718;-68
2022/01/25 03:04:05;;;;;;;6.65;4.65;;;1.40;99.90;;;1.41;91.52;102298.56;5011376;28;20210;-68
2022/01/25 03:06:33;;;;;;;6.45;4.07;;;1.30;99.90;;;1.46;91.36;102307.13;5010633;28;20222;-66
2022/01/25 03:09:00;;;;;;;10.52;5.85;;;1.40;99.90;;;1.39;91.51;102305.44;5010418;28;20210;-67
2022/01/25 03:11:27;;;;;;;8.68;5.25;;;1.40;99.90;;;1.47;91.44;102308.81;5047660;23;20264;-70
2022/01/25 03:13:58;;;;;;;9.57;5.10;;;1.40;99.90;;;1.48;90.98;102307.09;5028469;28;20208;-70
2022/01/25 03:16:39;;;;;;;8.18;5.13;;;1.40;99.90;;;1.45;90.64;102313.13;5027721;28;20206;-70
2022/01/25 03:22:04;;;;;;;10.82;6.90;;;1.30;99.90;;;1.29;91.75;102305.53;5009485;28;20350;-70
2022/01/25 03:24:32;;;;;;;15.30;7.40;;;1.30;99.90;;;1.19;92.48;102311.63;5008647;28;20206;-69
2022/01/25 03:26:59;;;;;;;12.13;7.30;;;1.20;99.90;;;1.25;91.85;102309.00;4991840;28;20229;-71
2022/01/25 03:29:25;;;;;;;13.65;6.90;;;1.20;99.90;;;1.22;91.62;102312.44;5008429;28;20724;-71
2022/01/25 03:31:52;;;;;;;10.88;6.20;;;1.20;99.90;;;1.17;91.99;102314.16;5010519;28;20222;-71
2022/01/25 03:34:19;;;;;;;11.95;7.05;;;1.10;99.90;;;1.20;91.80;102313.31;5010991;28;20201;-71
2022/01/25 03:36:47;;;;;;;11.35;6.15;;;1.10;99.90;;;1.19;91.14;102312.44;5009197;28;20202;-71
2022/01/25 03:39:14;;;;;;;7.95;4.90;;;1.10;99.90;;;1.21;90.66;102307.31;5010738;28;20614;-71
2022/01/25 03:41:41;;;;;;;9.70;5.90;;;1.10;99.90;;;1.13;90.60;102309.91;5010425;28;20606;-71
2022/01/25 03:44:08;;;;;;;8.00;4.78;;;1.10;99.90;;;1.14;90.53;102309.06;4989706;28;20207;-71
2022/01/25 03:51:50;;;;;;;3.80;3.10;;;1.00;99.90;;;1.04;91.37;102309.13;4995239;28;20426;-69
2022/01/25 03:54:18;;;;;;;8.25;4.50;;;1.00;99.90;;;1.03;91.41;102310.84;5008645;28;20209;-71
2022/01/25 03:56:46;;;;;;;10.88;5.90;;;0.90;99.90;;;1.00;91.45;102320.31;5008672;28;20207;-72
2022/01/25 03:59:14;;;;;;;7.18;4.60;;;0.90;99.90;;;1.01;91.21;102316.84;5008862;28;20213;-71
2022/01/25 04:01:41;;;;;;;7.22;4.25;;;1.00;99.90;;;0.96;91.28;102316.06;5009282;28;20223;-71
2022/01/25 04:04:13;;;;;;;9.63;5.25;;;0.90;99.90;;;0.98;90.83;102315.16;5010336;28;20219;-71
2022/01/25 04:06:43;;;;;;;9.23;4.68;;;0.90;99.90;;;0.99;90.89;102309.16;5026423;28;20233;-70
2022/01/25 04:09:10;;;;;;;8.50;4.82;;;0.90;99.90;;;1.03;90.47;102308.28;5009935;28;20209;-70
2022/01/25 04:11:37;;;;;;;7.60;4.43;;;1.00;99.90;;;1.00;90.08;102303.16;5011163;28;20230;-72
2022/01/25 04:14:05;;;;;;;8.48;4.35;;;1.00;99.90;;;0.98;89.94;102304.88;5008858;28;20202;-72
2022/01/25 04:16:43;;;;;;;11.50;4.65;;;0.90;99.90;;;0.93;90.26;102311.78;5010433;28;20211;-73
2022/01/25 04:19:24;;;;;;;11.70;6.30;;;0.90;99.90;;;0.95;89.77;102312.63;5008035;28;20217;-71
2022/01/25 04:27:26;;;;;;;15.23;6.88;;;0.90;99.90;;;0.91;90.92;102303.22;4998040;28;20198;-70
2022/01/25 04:29:54;;;;;;;10.27;6.00;;;0.90;99.90;;;0.94;90.94;102300.63;4989103;28;20207;-70
2022/01/25 04:32:34;;;;;;;13.20;6.78;;;0.90;99.90;;;0.97;91.11;102297.19;4991825;28;20226;-72
2022/01/25 04:48:58;;;;;;;10.10;6.03;;;0.90;99.90;;;1.00;92.31;102298.00;5013438;28;20751;-71
2022/01/25 04:59:39;;;;;;;11.13;5.53;;;0.90;99.90;;;1.03;92.30;102295.44;5014406;28;20203;-71
2022/01/25 05:02:15;;;;;;;11.80;6.82;;;0.90;99.90;;;1.00;92.12;102292.03;5013335;28;20276;-71
2022/01/25 05:04:50;;;;;;;9.65;6.20;;;0.90;99.90;;;1.00;92.34;102295.44;5013873;28;20210;-71
2022/01/25 05:09:51;;;;;;;8.68;5.25;;;1.00;99.90;;;1.06;91.74;102294.56;5012208;28;20209;-70
2022/01/25 05:12:29;;;;;;;13.48;7.28;;;1.00;99.90;;;1.04;92.71;102301.44;5011580;28;20237;-73
2022/01/25 05:15:05;;;;;;;10.60;6.00;;;0.90;99.90;;;1.05;92.31;102298.84;5010089;28;20194;-69
2022/01/25 05:17:42;;;;;;;7.35;5.00;;;1.00;99.90;;;1.00;92.27;102298.00;5011817;28;20198;-71
2022/01/25 05:22:55;;;;;;;6.43;4.35;;;0.90;99.90;;;1.02;91.78;102301.44;5010589;28;20207;-71
2022/01/25 05:25:22;;;;;;;6.22;4.05;;;0.90;99.90;;;1.04;91.29;102301.44;5011796;28;20199;-72
2022/01/25 05:27:49;;;;;;;5.60;4.30;;;1.00;99.90;;;1.00;91.69;102299.75;5011810;28;20276;-71
2022/01/25 05:30:15;;;;;;;9.77;5.88;;;1.00;99.90;;;1.01;91.51;102297.16;5011048;28;20203;-72
2022/01/25 05:32:42;;;;;;;8.48;5.47;;;0.90;99.90;;;0.97;91.15;102290.34;5011167;28;20225;-72
2022/01/25 05:35:10;;;;;;;8.55;5.45;;;0.90;99.90;;;0.96;91.97;102298.88;5010362;28;20206;-71
2022/01/25 05:37:41;;;;;;;8.23;5.00;;;0.90;99.90;;;0.96;91.51;102292.91;5011593;28;20210;-71
2022/01/25 05:40:15;;;;;;;6.82;4.55;;;0.90;99.90;;;0.96;91.74;102298.88;5012110;28;20203;-71
2022/01/25 05:42:49;;;;;;;8.30;4.20;;;0.90;99.90;;;0.95;91.38;102292.06;5010072;28;20214;-71
2022/01/25 05:45:26;;;;;;;4.97;3.85;;;0.90;99.90;;;0.93;91.32;102300.63;5010334;28;20219;-71
2022/01/25 05:47:53;;;;;;;8.07;4.03;;;0.90;99.90;;;0.90;91.02;102292.94;5011613;28;20221;-71
2022/01/25 05:50:20;;;;;;;5.05;4.15;;;0.80;99.90;;;0.85;91.37;102294.69;5012583;28;20199;-71
2022/01/25 05:52:47;;;;;;;7.40;4.10;;;0.80;99.90;;;0.87;91.20;102298.09;5012233;28;20721;-71
2022/01/25 05:55:14;;;;;;;3.55;3.25;;;0.80;99.90;;;0.84;91.27;102298.97;5011315;28;20225;-71
2022/01/25 05:57:41;;;;;;;7.35;3.08;;;0.80;99.90;;;0.72;91.56;102305.00;5010117;28;20219;-72
2022/01/25 06:00:09;;;;;;;8.35;4.90;;;0.70;99.90;;;0.74;91.47;102305.03;5010055;28;20612;-71
2022/01/25 06:02:36;;;;;;;8.00;3.20;;;0.70;99.90;;;0.73;91.75;102313.59;5010145;28;20303;-71
2022/01/25 06:05:05;;;;;;;11.95;6.30;;;0.70;99.90;;;0.70;91.84;102306.75;5011574;28;20206;-72
2022/01/25 06:07:33;;;;;;;4.90;3.85;;;0.60;99.90;;;0.75;91.80;102304.16;4993177;28;20218;-70
2022/01/25 06:10:00;;;;;;;8.50;4.53;;;0.70;99.90;;;0.66;92.07;102319.63;5010610;28;20213;-70
2022/01/25 06:12:26;;;;;;;4.47;3.40;;;0.70;99.90;;;0.65;92.10;102308.50;5011744;28;20222;-71
2022/01/25 06:14:53;;;;;;;7.20;4.20;;;0.60;99.90;;;0.71;91.78;102299.91;4974177;28;20199;-71
2022/01/25 06:17:20;;;;;;;5.78;4.07;;;0.60;99.90;;;0.68;92.21;102308.47;4990983;28;20214;-71
2022/01/25 06:19:47;;;;;;;5.40;3.55;;;0.60;99.90;;;0.66;91.56;102307.63;5002351;28;20209;-71
2022/01/25 06:22:15;;;;;;;4.72;3.75;;;0.60;99.90;;;0.68;91.46;102318.75;5010939;28;20222;-70
2022/01/25 06:24:42;;;;;;;6.80;4.35;;;0.60;99.90;;;0.59;92.05;102323.94;5010167;28;20209;-71
2022/01/25 06:27:09;;;;;;;6.97;3.53;;;0.60;99.90;;;0.64;91.96;102322.19;5011157;28;20230;-71
2022/01/25 06:29:36;;;;;;;8.23;5.40;;;0.60;99.90;;;0.59;91.85;102316.25;5008352;28;20575;-71
2022/01/25 06:32:04;;;;;;;8.68;4.18;;;0.60;99.90;;;0.66;91.71;102314.50;5009551;28;20301;-68
2022/01/25 06:34:31;;;;;;;6.15;3.25;;;0.60;99.90;;;0.64;91.34;102317.06;5011192;28;20222;-70
2022/01/25 06:36:58;;;;;;;6.93;5.25;;;0.60;99.90;;;0.60;91.32;102315.38;5009147;28;20202;-71
2022/01/25 06:39:25;;;;;;;5.20;4.00;;;0.60;99.90;;;0.58;91.73;102313.66;5011492;28;20321;-69
2022/01/25 06:41:52;;;;;;;9.40;5.35;;;0.60;99.90;;;0.64;91.55;102318.75;5011380;28;20224;-68
2022/01/25 06:44:19;;;;;;;10.40;5.72;;;0.60;99.90;;;0.61;91.80;102321.38;5011041;28;20209;-69
2022/01/25 06:46:46;;;;;;;7.72;4.40;;;0.60;99.90;;;0.57;91.78;102325.66;5008888;28;20730;-71
2022/01/25 06:49:14;;;;;;;8.63;4.43;;;0.50;99.90;;;0.52;91.39;102322.25;5010334;28;20333;-69
2022/01/25 06:51:41;;;;;;;8.88;4.80;;;0.40;99.90;;;0.50;91.24;102323.97;5010373;28;20229;-70
2022/01/25 06:54:08;;;;;;;7.05;4.13;;;0.40;99.90;;;0.49;90.72;102331.69;5008693;28;20201;-71
2022/01/25 06:56:35;;;;;;;12.13;5.68;;;0.40;99.90;;;0.40;91.29;102324.88;5009575;28;20202;-71
2022/01/25 06:59:03;;;;;;;6.88;4.60;;;0.30;99.90;;;0.36;91.40;102337.72;5009867;28;20212;-73
2022/01/25 07:01:31;;;;;;;7.65;4.25;;;0.30;99.90;;;0.37;91.61;102336.84;5008920;28;20714;-71
2022/01/25 07:03:58;;;;;;;8.32;4.18;;;0.30;99.90;;;0.40;91.18;102347.13;4992229;28;20225;-71
2022/01/25 07:06:24;;;;;;;6.85;4.40;;;0.30;99.90;;;0.39;91.00;102346.25;5011680;28;20230;-72
2022/01/25 07:08:51;;;;;;;5.13;3.65;;;0.30;99.90;;;0.37;90.95;102340.28;5008984;28;20206;-70
2022/01/25 07:11:19;;;;;;;7.13;4.40;;;0.30;99.90;;;0.42;90.97;102345.41;4992975;28;20321;-73
2022/01/25 07:13:47;;;;;;;8.70;4.55;;;0.40;99.90;;;0.45;90.89;102342.81;5009520;28;20212;-68
2022/01/25 07:16:15;;;;;;;9.52;4.32;;;0.40;99.90;;;0.44;91.10;102341.13;5010380;28;20202;-70
2022/01/25 07:18:42;;;;;;;8.55;4.50;;;0.40;99.90;;;0.45;91.17;102345.38;5010210;28;20206;-68
2022/01/25 07:21:09;;;;;;;7.88;3.88;;;0.40;99.90;;;0.50;90.89;102338.53;5009922;28;20233;-69
2022/01/25 07:23:36;;;;;;;8.32;4.88;;;0.50;99.90;;;0.59;90.18;102343.63;5009896;28;20217;-68
2022/01/25 07:26:03;;;;;;;11.88;5.80;;;0.50;99.90;;;0.66;90.07;102345.34;5008450;28;20202;-70
2022/01/25 07:28:30;;;;;;;7.93;4.28;;;0.60;99.90;;;0.68;89.94;102344.44;4988815;28;20667;-69
2022/01/25 07:30:57;;;;;;;10.82;5.80;;;0.70;99.90;;;0.77;89.64;102346.97;5000692;28;20722;-69
2022/01/25 07:33:38;;;;;;;6.40;4.18;;;0.80;99.90;;;0.88;89.16;102346.91;5008924;28;20290;-68
2022/01/25 07:36:19;;;;;;;9.75;6.18;;;0.90;99.90;;;0.95;88.59;102348.59;5006664;28;20218;-69
2022/01/25 07:38:48;;;;;;;7.18;4.25;;;1.00;99.90;;;1.00;88.50;102339.13;5009179;28;20206;-68
2022/01/25 07:41:17;;;;;;;3.95;2.95;;;1.00;99.90;;;1.07;88.53;102339.94;5008405;28;20222;-69
2022/01/25 07:43:44;;;;;;;7.03;4.13;;;1.10;99.90;;;1.07;88.01;102337.38;5009892;28;20203;-71
2022/01/25 07:46:16;;;;;;;4.22;3.45;;;1.10;99.90;;;1.05;88.27;102339.97;4978058;28;20280;-69
2022/01/25 07:48:47;;;;;;;7.07;3.80;;;1.10;99.90;;;1.11;88.51;102339.09;4977605;28;20296;-68
2022/01/25 07:51:14;;;;;;;5.85;3.85;;;1.20;99.90;;;1.12;88.23;102335.66;5006758;28;20545;-68
2022/01/25 07:53:41;;;;;;;7.68;3.95;;;1.20;99.90;;;1.17;88.13;102328.78;5005801;28;20659;-71
2022/01/25 07:56:08;;;;;;;3.13;2.45;;;1.20;99.90;;;1.24;87.80;102333.84;5013005;28;20209;-69
2022/01/25 07:58:36;;;;;;;5.88;3.95;;;1.30;99.90;;;1.13;88.94;102333.06;5018010;28;20215;-71
2022/01/25 08:01:04;;;;;;;6.47;3.20;;;1.20;99.90;;;1.18;88.53;102333.91;5013411;28;20205;-70
2022/01/25 08:03:32;;;;;;;7.03;4.15;;;1.20;99.90;;;1.20;88.74;102336.44;4995901;28;20244;-70
2022/01/25 08:06:07;;;;;;;4.80;3.53;;;1.30;99.90;;;1.24;88.90;102332.97;4995100;28;20194;-70
2022/01/25 08:08:52;;;;;;;7.03;3.78;;;1.30;99.90;;;1.29;88.53;102328.69;5000363;28;20226;-71
2022/01/25 08:11:35;;;;;;;10.13;4.40;;;1.30;99.90;;;1.36;88.25;102328.59;5005528;28;20248;-69
2022/01/25 08:14:17;;;;;;;5.88;3.65;;;1.40;99.90;;;1.42;88.01;102328.59;4989191;28;20211;-67
2022/01/25 08:16:51;;;;;;;4.30;3.10;;;1.50;99.90;;;1.44;88.10;102339.72;5013757;28;20199;-69
2022/01/25 08:19:20;;;;;;;3.53;2.15;;;1.50;99.90;;;1.33;87.64;102335.50;5010537;28;20226;-70
2022/01/25 08:21:56;;;;;;;18.83;3.95;;;1.50;99.90;;;1.48;87.67;102336.25;5010412;28;20203;-68
2022/01/25 08:24:25;;;;;;;1.83;1.45;;;1.60;99.90;;;1.31;87.59;102338.09;5011949;28;20217;-68
2022/01/25 08:27:09;;;;;;;6.78;3.88;;;1.50;99.90;;;1.16;88.58;102343.34;4970711;28;20334;-70
2022/01/25 08:29:48;;;;;;;11.13;4.45;;;1.40;99.90;;;1.14;89.33;102344.22;4968991;28;20687;-72
2022/01/25 08:32:42;;;;;;;7.20;4.30;;;1.30;99.90;;;1.21;88.88;102341.59;4914135;29;20210;-71
2022/01/25 08:35:24;;;;;;;5.80;3.25;;;1.40;99.90;;;1.30;88.26;102345.84;4913157;29;20206;-68
2022/01/25 08:38:17;;;;;;;5.20;4.13;;;1.50;99.90;;;1.31;88.84;102350.09;4883852;29;20217;-68
2022/01/25 08:41:06;;;;;;;3.90;2.80;;;1.40;99.90;;;1.32;89.13;102352.66;4887071;29;20289;-68
2022/01/25 08:43:48;;;;;;;7.90;5.40;;;1.50;99.90;;;1.43;89.05;102358.56;4893088;29;20202;-71
2022/01/25 08:46:18;;;;;;;5.85;3.97;;;1.50;99.90;;;1.56;88.58;102359.34;4892854;29;20206;-69
2022/01/25 08:49:00;;;;;;;7.63;4.38;;;1.70;99.90;;;1.66;88.96;102360.13;4895858;29;20222;-69
2022/01/25 08:51:37;;;;;;;4.10;3.13;;;1.70;99.90;;;1.67;88.98;102360.13;4914129;29;20555;-73
2022/01/25 08:54:17;;;;;;;5.18;3.35;;;1.80;99.90;;;1.81;88.56;102362.59;4907452;29;20210;-71
2022/01/25 08:56:50;;;;;;;4.63;2.90;;;1.90;99.90;;;1.81;88.63;102360.84;4915976;29;20325;-71
2022/01/25 08:59:33;;;;;;;7.72;3.65;;;1.90;99.90;;;1.90;88.60;102372.78;4913879;29;20289;-71
2022/01/25 09:02:01;;;;;;;4.35;3.45;;;2.00;99.90;;;1.82;88.63;102372.00;4899864;29;20244;-69
2022/01/25 09:04:28;;;;;;;4.90;3.90;;;2.00;99.90;;;1.90;89.00;102375.34;4942276;28;20204;-69
2022/01/25 09:06:55;;;;;;;4.68;3.13;;;2.00;99.90;;;1.85;89.19;102377.13;4967333;28;20659;-69
2022/01/25 09:12:05;;;;;;;5.65;4.15;;;2.10;99.90;;;2.04;88.94;102384.69;4969169;28;20212;-64
2022/01/25 09:14:32;;;;;;;7.57;4.72;;;2.20;99.90;;;2.19;88.78;102381.09;4968051;28;20218;-65
2022/01/25 09:16:59;;;;;;;7.55;4.30;;;2.20;99.90;;;2.27;88.95;102382.75;4980123;28;20243;-66
2022/01/25 09:19:26;;;;;;;6.68;4.50;;;2.40;99.90;;;2.37;88.52;102388.63;4958714;28;20234;-61
2022/01/25 09:21:53;;;;;;;6.10;3.95;;;2.40;99.90;;;2.47;87.41;102387.66;4972056;28;20224;-65
2022/01/25 09:24:23;;;;;;;4.97;3.50;;;2.50;99.90;;;2.50;87.56;102395.38;4954591;28;20513;-65
2022/01/25 09:26:50;;;;;;;4.22;3.35;;;2.60;99.90;;;2.54;87.86;102386.72;4971108;28;20322;-65
2022/01/25 09:29:17;;;;;;;4.45;3.28;;;2.60;99.90;;;2.52;88.21;102396.19;4972236;28;20719;-67
2022/01/25 09:31:44;;;;;;;3.83;3.17;;;2.60;99.90;;;2.58;88.43;102398.72;4956279;28;20217;-65
2022/01/25 09:34:12;;;;;;;5.97;4.38;;;2.60;99.90;;;2.63;88.44;102390.94;4956864;28;20582;-65
2022/01/25 09:36:40;;;;;;;7.85;4.68;;;2.70;99.90;;;2.71;87.43;102396.84;4975953;28;20660;-68
2022/01/25 09:39:14;;;;;;;6.55;4.78;;;2.80;99.90;;;2.75;87.98;102394.22;4986872;28;20684;-65
2022/01/25 09:41:41;;;;;;;6.43;4.32;;;2.80;99.90;;;2.83;87.65;102391.56;4974103;28;20709;-67
2022/01/25 09:44:08;;;;;;;6.50;4.32;;;2.90;99.90;;;2.89;87.61;102389.75;4983333;28;20211;-67
2022/01/25 09:46:36;;;;;;;7.60;4.30;;;3.00;99.90;;;2.97;87.58;102387.06;4968180;28;20204;-66
2022/01/25 09:49:03;;;;;;;11.88;6.25;;;3.00;99.90;;;3.02;86.98;102380.97;4969172;28;20294;-65
2022/01/25 09:51:31;;;;;;;7.93;4.70;;;3.10;99.90;;;3.02;87.03;102383.53;4974329;28;20758;-66
2022/01/25 09:53:58;;;;;;;10.57;4.70;;;3.10;99.90;;;3.04;87.71;102393.88;4970906;28;20219;-65
2022/01/25 09:56:25;;;;;;;6.32;3.97;;;3.10;99.90;;;3.11;87.35;102391.16;4995289;28;20200;-66
2022/01/25 09:58:52;;;;;;;8.45;4.75;;;3.20;99.90;;;3.19;87.39;102401.41;4972921;28;20206;-66
2022/01/25 10:01:29;;;;;;;8.38;4.50;;;3.20;99.90;;;3.22;87.06;102397.91;4974398;28;20696;-65
2022/01/25 10:03:58;;;;;;;9.13;3.97;;;3.30;99.90;;;3.26;87.27;102394.44;4971228;28;20552;-66
2022/01/25 10:06:32;;;;;;;7.93;4.30;;;3.30;99.90;;;3.23;87.13;102403.06;4963350;28;20216;-65
2022/01/25 10:08:59;;;;;;;10.80;6.03;;;3.40;99.90;;;3.32;87.06;102405.53;4953926;28;20215;-64
2022/01/25 10:11:26;;;;;;;12.38;6.68;;;3.40;99.90;;;3.37;87.41;102408.00;4958702;28;20235;-64
2022/01/25 10:13:57;;;;;;;5.75;4.18;;;3.40;99.90;;;3.45;87.21;102403.63;4970324;28;20200;-66
2022/01/25 10:16:36;;;;;;;7.13;3.00;;;3.50;99.90;;;3.46;86.87;102400.13;4969016;28;20672;-66
2022/01/25 10:19:06;;;;;;;8.48;3.30;;;3.50;99.90;;;3.47;86.84;102394.13;4971878;28;20239;-64
2022/01/25 10:21:41;;;;;;;7.93;3.85;;;3.60;99.90;;;3.47;86.89;102400.09;4968701;28;20227;-64
2022/01/25 10:24:14;;;;;;;15.15;6.25;;;3.50;99.90;;;3.53;86.89;102401.75;4996494;28;20587;-66
2022/01/25 10:27:01;;;;;;;5.45;4.22;;;3.60;99.90;;;3.53;86.82;102402.63;4965547;28;20203;-69
2022/01/25 10:29:35;;;;;;;10.52;5.30;;;3.60;99.90;;;3.56;86.76;102404.28;4985086;28;20199;-67
2022/01/25 10:32:14;;;;;;;14.20;7.10;;;3.60;99.90;;;3.56;86.85;102399.13;4970466;28;20222;-66
2022/01/25 10:34:47;;;;;;;15.73;7.90;;;3.60;99.90;;;3.54;87.58;102396.56;4985764;28;20206;-66
2022/01/25 10:37:18;;;;;;;17.92;8.20;;;3.60;99.90;;;3.56;87.47;102393.97;4971302;28;20211;-65
2022/01/25 10:39:51;;;;;;;14.68;7.38;;;3.60;99.90;;;3.62;87.28;102404.22;4970314;28;20242;-65
2022/01/25 10:42:23;;;;;;;18.83;7.90;;;3.70;99.90;;;3.61;86.84;102397.34;4966855;28;20228;-65
2022/01/25 10:44:58;;;;;;;13.05;6.25;;;3.70;99.90;;;3.68;87.04;102402.41;4975931;28;20214;-66
2022/01/25 10:47:52;;;;;;;16.33;8.18;;;3.70;99.90;;;3.69;86.71;102398.06;4969876;28;20309;-66
2022/01/25 10:50:28;;;;;;;12.73;6.57;;;3.80;99.90;;;3.66;86.65;102398.13;4970753;28;20200;-64
2022/01/25 10:53:17;;;;;;;14.80;7.90;;;3.70;99.90;;;3.72;86.61;102406.63;4981328;28;20251;-65
2022/01/25 10:55:51;;;;;;;17.48;7.45;;;3.80;99.90;;;3.64;86.68;102398.13;4969483;28;20656;-65
2022/01/25 10:58:19;;;;;;;11.93;5.50;;;3.80;99.90;;;3.71;86.54;102394.59;4971290;28;20231;-65
2022/01/25 11:00:50;;;;;;;7.50;4.35;;;3.80;99.90;;;3.78;86.86;102390.19;4979135;28;20568;-64
2022/01/25 11:03:46;;;;;;;5.53;3.95;;;3.80;99.90;;;3.85;86.36;102376.31;4951527;29;20354;-65
2022/01/25 11:06:20;;;;;;;3.95;2.85;;;3.90;99.90;;;3.85;86.46;102379.72;4955252;28;20305;-65
2022/01/25 11:08:50;;;;;;;11.93;5.03;;;4.00;99.90;;;3.89;86.18;102378.81;4982688;28;20787;-64
2022/01/25 11:11:27;;;;;;;14.75;6.90;;;4.00;99.90;;;3.93;86.62;102366.69;4965955;28;20305;-64
2022/01/25 11:13:56;;;;;;;20.10;8.65;;;4.00;99.90;;;3.93;86.30;102375.28;4962646;28;20280;-65
2022/01/25 11:16:23;;;;;;;17.30;8.27;;;4.10;99.90;;;3.93;86.85;102385.63;4970477;28;20212;-64
2022/01/25 11:18:56;;;;;;;15.30;7.75;;;4.00;99.90;;;3.86;86.77;102384.00;4965439;28;20208;-64
2022/01/25 11:21:23;;;;;;;19.88;9.73;;;3.90;99.90;;;3.74;87.31;102378.19;4970332;28;20244;-64
2022/01/25 11:23:52;;;;;;;19.67;9.20;;;3.90;99.90;;;3.74;87.14;102379.06;4954535;28;20212;-65
2022/01/25 11:26:20;;;;;;;14.57;7.93;;;3.90;99.90;;;3.67;86.63;102379.16;4968964;28;20212;-65
2022/01/25 11:28:48;;;;;;;14.32;7.60;;;3.90;99.90;;;3.61;87.51;102374.09;4983916;28;20224;-67
2022/01/25 11:31:21;;;;;;;15.45;7.32;;;3.70;99.90;;;3.65;87.22;102368.00;4950972;29;20220;-67
2022/01/25 11:33:51;;;;;;;13.65;7.72;;;3.80;99.90;;;3.73;87.39;102364.44;4965915;28;20201;-66
2022/01/25 11:36:20;;;;;;;17.30;7.68;;;3.80;99.90;;;3.75;87.54;102366.97;4950523;28;20236;-65
2022/01/25 11:38:51;;;;;;;18.92;8.45;;;3.90;99.90;;;3.80;87.00;102368.63;4956524;28;20691;-67
2022/01/25 11:41:22;;;;;;;14.40;6.70;;;3.90;99.90;;;3.87;86.71;102364.22;4970621;28;20234;-65
2022/01/25 11:44:15;;;;;;;12.18;6.28;;;4.00;99.90;;;3.90;86.07;102370.16;4971298;28;20208;-64
2022/01/25 11:46:50;;;;;;;19.27;7.55;;;4.00;99.90;;;3.90;86.12;102367.59;4971470;28;20212;-64
2022/01/25 11:49:22;;;;;;;12.13;6.05;;;4.00;99.90;;;3.76;86.89;102360.94;4978585;28;20711;-67
2022/01/25 11:52:13;;;;;;;7.00;4.55;;;3.90;99.90;;;3.81;86.52;102364.31;4972042;28;20267;-67
2022/01/25 11:54:42;;;;;;;12.90;5.07;;;3.90;99.90;;;3.84;86.20;102365.09;4962769;28;20291;-64
2022/01/25 11:57:20;;;;;;;11.60;5.75;;;4.00;99.90;;;3.91;86.31;102363.28;5001359;28;20204;-66
2022/01/25 11:59:56;;;;;;;16.02;7.45;;;4.00;99.90;;;3.93;86.47;102369.28;4970353;28;20207;-67
2022/01/25 12:02:49;;;;;;;7.10;4.30;;;4.00;99.90;;;3.98;86.46;102367.47;4971394;28;20235;-65
2022/01/25 12:05:26;;;;;;;12.30;6.88;;;4.10;99.90;;;3.95;85.90;102372.69;4969437;28;20200;-64
2022/01/25 12:08:14;;;;;;;17.65;9.20;;;4.00;99.90;;;3.80;86.62;102363.47;4955669;28;20223;-65
2022/01/25 12:10:45;;;;;;;17.60;8.43;;;3.90;99.90;;;3.73;86.41;102358.41;4971105;28;20591;-66
2022/01/25 12:13:20;;;;;;;24.25;9.00;;;3.90;99.90;;;3.72;86.46;102349.84;4970210;28;20233;-65
2022/01/25 12:16:27;;;;;;;18.65;7.82;;;3.80;99.90;;;3.84;86.70;102353.91;4967772;28;20210;-67
2022/01/25 12:19:04;;;;;;;14.20;7.68;;;3.90;99.90;;;3.78;86.57;102356.59;4967689;28;20204;-66
2022/01/25 12:21:50;;;;;;;16.27;7.00;;;3.80;99.90;;;3.85;86.19;102351.31;4953069;28;20259;-66